Terminal Aerodrome Forecast
Issued by NWS

Home | Current Version | Previous Version | Text Only | Print | Product List | Glossary On
Versions: 1 2 3 4 5 6 7 8 9 10 11 12 13 14 15
000
FTUS45 KRIW 230500
TAFLND
TAF
KLND 230536Z 2306/2406 08009KT P6SM VCSH SCT008 OVC025
     FM231000 VRB05KT P6SM VCFG SCT005 BKN015
     FM231600 VRB05KT P6SM VCSH SCT050 BKN100
     FM232200 VRB10G15KT P6SM VCTS SCT050CB BKN100
     FM240200 30007KT P6SM -SHRA OVC030=

USA.gov is the U.S. government's official web portal to all federal, state and local government web resources and services.